createdAt,value
2023-03-07T00:00:41.988Z,58.60
2023-03-07T00:02:43.844Z,58.70
2023-03-07T00:04:46.179Z,58.60
2023-03-07T00:06:47.938Z,58.70
2023-03-07T00:08:53.543Z,58.70
2023-03-07T00:10:55.220Z,58.50
2023-03-07T00:12:56.957Z,58.40
2023-03-07T00:14:58.687Z,58.50
2023-03-07T00:17:00.578Z,58.50
2023-03-07T00:19:02.232Z,58.50
2023-03-07T00:21:07.757Z,58.40
2023-03-07T00:23:09.520Z,58.30
2023-03-07T00:25:11.290Z,58.30
2023-03-07T00:27:13.068Z,58.20
2023-03-07T00:29:14.829Z,58.20
2023-03-07T00:31:17.121Z,58.30
2023-03-07T00:33:18.796Z,58.30
2023-03-07T00:35:20.463Z,58.40
2023-03-07T00:37:22.786Z,58.80
2023-03-07T00:39:24.421Z,58.90
2023-03-07T00:41:27.741Z,58.90
2023-03-07T00:43:29.912Z,59.10
2023-03-07T00:45:31.547Z,59.10
2023-03-07T00:47:33.237Z,59.00
2023-03-07T00:49:35.042Z,59.10
2023-03-07T00:51:36.904Z,59.30
2023-03-07T00:53:39.714Z,59.50
2023-03-07T00:55:42.144Z,59.70
2023-03-07T00:57:43.826Z,60.00
2023-03-07T00:59:45.509Z,59.80
2023-03-07T01:01:47.346Z,59.60
2023-03-07T01:03:49.820Z,59.70
2023-03-07T01:05:54.664Z,59.90
2023-03-07T01:07:57.346Z,59.80
2023-03-07T01:09:59.030Z,59.90
2023-03-07T01:12:00.682Z,59.80
2023-03-07T01:14:04.354Z,59.60
2023-03-07T01:16:07.960Z,59.70
2023-03-07T01:18:10.741Z,59.90
2023-03-07T01:20:12.792Z,60.00
2023-03-07T01:22:14.544Z,59.90
2023-03-07T01:24:16.761Z,59.70
2023-03-07T01:26:19.769Z,59.60
2023-03-07T01:28:21.473Z,59.50
2023-03-07T01:30:24.123Z,59.70
2023-03-07T01:32:25.910Z,60.00
2023-03-07T01:34:27.677Z,59.90
2023-03-07T01:36:31.110Z,59.70
2023-03-07T01:38:38.158Z,60.50
2023-03-07T01:40:40.977Z,60.10
2023-03-07T01:42:42.676Z,60.50
2023-03-07T01:45:16.993Z,60.60
2023-03-07T01:47:22.899Z,60.50
2023-03-07T01:49:30.405Z,60.40
2023-03-07T01:51:36.280Z,60.50
2023-03-07T01:53:39.764Z,60.20
2023-03-07T01:55:42.195Z,60.40
2023-03-07T01:57:50.380Z,60.40
2023-03-07T01:59:54.689Z,60.60
2023-03-07T02:01:57.596Z,60.70
2023-03-07T02:04:28.621Z,60.80
2023-03-07T02:06:33.376Z,61.20
2023-03-07T02:08:35.639Z,61.30
2023-03-07T02:10:37.750Z,61.70
2023-03-07T02:12:40.398Z,61.40
2023-03-07T02:14:47.192Z,61.90
2023-03-07T02:16:49.057Z,62.20
2023-03-07T02:18:50.835Z,61.90
2023-03-07T02:21:01.741Z,62.00
2023-03-07T02:23:04.613Z,61.70
2023-03-07T02:25:10.653Z,61.50
2023-03-07T02:27:13.401Z,61.50
2023-03-07T02:29:15.638Z,61.90
2023-03-07T02:31:20.049Z,61.70
2023-03-07T02:33:24.935Z,61.50
2023-03-07T02:35:32.238Z,61.70
2023-03-07T02:37:37.913Z,61.70
2023-03-07T02:39:41.554Z,61.70
2023-03-07T02:41:43.675Z,61.80
2023-03-07T02:43:53.993Z,61.70
2023-03-07T02:45:55.962Z,61.80
2023-03-07T02:47:57.630Z,61.40
2023-03-07T02:49:59.470Z,61.20
2023-03-07T02:52:01.139Z,61.20
2023-03-07T02:54:04.125Z,61.20
2023-03-07T02:56:06.489Z,61.10
2023-03-07T02:58:08.187Z,61.20
2023-03-07T03:00:11.466Z,61.30
2023-03-07T03:02:13.516Z,61.50
2023-03-07T03:04:15.354Z,61.30
2023-03-07T03:06:17.597Z,60.90
2023-03-07T03:08:19.315Z,60.80
2023-03-07T03:10:21.029Z,60.90
2023-03-07T03:12:22.676Z,61.40
2023-03-07T03:14:25.320Z,61.30
2023-03-07T03:16:27.079Z,61.30
2023-03-07T03:18:28.779Z,61.50
2023-03-07T03:20:30.479Z,61.40
2023-03-07T03:22:32.875Z,61.50
2023-03-07T03:24:37.731Z,61.50
2023-03-07T03:26:39.473Z,61.50
2023-03-07T03:28:41.530Z,61.20
2023-03-07T03:30:43.216Z,61.50
2023-03-07T03:32:44.944Z,61.10
2023-03-07T03:34:49.296Z,61.60
2023-03-07T03:36:51.156Z,61.60
2023-03-07T03:38:53.627Z,61.60
2023-03-07T03:40:55.368Z,61.80
2023-03-07T03:42:57.174Z,61.90
2023-03-07T03:45:00.607Z,62.20
2023-03-07T03:47:05.244Z,61.90
2023-03-07T03:49:06.931Z,62.10
2023-03-07T03:51:11.116Z,62.10
2023-03-07T03:53:12.712Z,62.10
2023-03-07T03:55:14.388Z,62.10
2023-03-07T03:57:18.796Z,62.30
2023-03-07T03:59:22.151Z,61.70
2023-03-07T04:01:25.937Z,61.50
2023-03-07T04:03:27.678Z,61.50
2023-03-07T04:05:29.401Z,61.90
2023-03-07T04:07:31.090Z,62.10
2023-03-07T04:09:33.165Z,62.10
2023-03-07T04:11:34.955Z,62.40
2023-03-07T04:13:36.868Z,62.30
2023-03-07T04:15:38.501Z,62.50
2023-03-07T04:17:40.189Z,62.50
2023-03-07T04:19:43.560Z,62.60
2023-03-07T04:21:45.240Z,62.10
2023-03-07T04:23:50.427Z,61.70
2023-03-07T04:25:56.308Z,61.70
2023-03-07T04:27:58.230Z,61.60
2023-03-07T04:29:59.894Z,61.90
2023-03-07T04:32:01.662Z,62.20
2023-03-07T04:34:03.487Z,62.50
2023-03-07T04:36:05.952Z,62.80
2023-03-07T04:38:08.004Z,62.40
2023-03-07T04:40:10.238Z,62.60
2023-03-07T04:42:11.938Z,62.30
2023-03-07T04:44:15.414Z,62.60
2023-03-07T04:46:18.056Z,62.20
2023-03-07T04:48:20.142Z,62.40
2023-03-07T04:50:21.805Z,62.60
2023-03-07T04:52:23.529Z,62.60
2023-03-07T04:54:25.267Z,62.50
2023-03-07T04:56:27.281Z,62.70
2023-03-07T04:58:30.092Z,62.70
2023-03-07T05:00:31.739Z,62.80
2023-03-07T05:02:33.505Z,62.90
2023-03-07T05:04:36.601Z,62.50
2023-03-07T05:06:39.032Z,62.40
2023-03-07T05:08:41.061Z,62.40
2023-03-07T05:10:42.804Z,62.40
2023-03-07T05:12:44.648Z,62.50
2023-03-07T05:14:46.840Z,62.60
2023-03-07T05:16:48.571Z,62.50
2023-03-07T05:18:50.213Z,61.80
2023-03-07T05:20:52.516Z,62.00
2023-03-07T05:22:54.377Z,62.00
2023-03-07T05:24:56.217Z,61.80
2023-03-07T05:26:58.030Z,62.00
2023-03-07T05:28:59.742Z,62.10
2023-03-07T05:31:01.410Z,62.20
2023-03-07T05:33:03.326Z,62.50
2023-03-07T05:35:05.458Z,62.10
2023-03-07T05:37:07.138Z,62.40
2023-03-07T05:39:08.934Z,62.20
2023-03-07T05:41:10.843Z,62.50
2023-03-07T05:43:12.566Z,63.00
2023-03-07T05:45:15.038Z,62.00
2023-03-07T05:47:17.476Z,62.00
2023-03-07T05:49:19.469Z,62.20
2023-03-07T05:51:21.408Z,62.20
2023-03-07T05:53:23.574Z,62.30
2023-03-07T05:55:25.888Z,62.40
2023-03-07T05:57:27.741Z,62.50
2023-03-07T05:59:29.560Z,62.60
2023-03-07T06:01:31.190Z,62.60
2023-03-07T06:03:33.251Z,62.80
2023-03-07T06:05:34.874Z,62.70
2023-03-07T06:07:36.938Z,62.20
2023-03-07T06:09:38.644Z,62.00
2023-03-07T06:11:40.406Z,61.90
2023-03-07T06:13:42.105Z,62.00
2023-03-07T06:15:44.059Z,62.00
2023-03-07T06:17:46.311Z,62.10
2023-03-07T06:19:47.937Z,62.00
2023-03-07T06:21:49.639Z,61.80
2023-03-07T06:23:51.504Z,61.90
2023-03-07T06:25:58.932Z,61.90
2023-03-07T06:28:01.376Z,61.60
2023-03-07T06:30:06.313Z,61.90
2023-03-07T06:32:08.344Z,61.50
2023-03-07T06:34:11.937Z,61.70
2023-03-07T06:36:15.054Z,61.80
2023-03-07T06:38:19.147Z,61.70
2023-03-07T06:40:20.831Z,61.70
2023-03-07T06:42:22.912Z,61.80
2023-03-07T06:44:25.041Z,61.70
2023-03-07T06:46:26.758Z,61.80
2023-03-07T06:48:29.235Z,61.70
2023-03-07T06:50:35.590Z,61.80
2023-03-07T06:52:38.495Z,61.60
2023-03-07T06:54:40.192Z,61.60
2023-03-07T06:56:44.855Z,61.60
2023-03-07T06:58:47.794Z,61.40
2023-03-07T07:00:50.911Z,61.40
2023-03-07T07:02:52.779Z,61.50
2023-03-07T07:04:55.182Z,61.30
2023-03-07T07:06:56.880Z,61.20
2023-03-07T07:08:59.202Z,61.70
2023-03-07T07:11:05.100Z,61.70
2023-03-07T07:13:07.030Z,62.00
2023-03-07T07:15:09.665Z,61.90
2023-03-07T07:17:11.403Z,61.80
2023-03-07T07:19:13.197Z,61.90
2023-03-07T07:21:16.187Z,62.20
2023-03-07T07:23:20.647Z,62.20
2023-03-07T07:25:23.119Z,62.20
2023-03-07T07:27:25.760Z,61.90
2023-03-07T07:29:27.860Z,61.80
2023-03-07T07:31:29.740Z,61.70
2023-03-07T07:33:31.816Z,61.60
2023-03-07T07:35:33.723Z,61.50
2023-03-07T07:37:35.594Z,61.40
2023-03-07T07:39:40.695Z,61.20
2023-03-07T07:41:42.558Z,61.30
2023-03-07T07:43:46.644Z,61.10
2023-03-07T07:45:56.762Z,61.20
2023-03-07T07:47:59.366Z,61.00
2023-03-07T07:50:01.059Z,60.90
2023-03-07T07:52:06.455Z,60.80
2023-03-07T07:54:09.297Z,60.70
2023-03-07T07:56:11.047Z,60.60
2023-03-07T07:58:12.787Z,60.50
2023-03-07T08:00:19.334Z,60.50
2023-03-07T08:02:21.165Z,60.20
2023-03-07T08:04:22.945Z,60.20
2023-03-07T08:06:25.721Z,60.10
2023-03-07T08:08:27.441Z,60.00
2023-03-07T08:10:29.214Z,60.20
2023-03-07T08:12:31.650Z,60.30
2023-03-07T08:14:33.893Z,60.50
2023-03-07T08:16:35.636Z,60.10
2023-03-07T08:18:37.387Z,60.00
2023-03-07T08:20:39.668Z,59.80
2023-03-07T08:22:41.404Z,59.90
2023-03-07T08:24:43.168Z,59.90
2023-03-07T08:26:44.852Z,60.00
2023-03-07T08:28:46.766Z,60.00
2023-03-07T08:30:48.494Z,60.00
2023-03-07T08:32:50.923Z,60.00
2023-03-07T08:34:52.988Z,60.00
2023-03-07T08:36:54.653Z,60.00
2023-03-07T08:38:56.347Z,60.00
2023-03-07T08:41:02.033Z,60.00
2023-03-07T08:43:04.073Z,60.10
2023-03-07T08:45:06.058Z,60.10
2023-03-07T08:47:07.774Z,60.10
2023-03-07T08:49:09.536Z,60.20
2023-03-07T08:51:12.591Z,60.10
2023-03-07T08:53:14.651Z,60.00
2023-03-07T08:55:16.836Z,59.80
2023-03-07T08:57:18.554Z,59.80
2023-03-07T08:59:20.211Z,59.80
2023-03-07T09:01:21.986Z,59.80
2023-03-07T09:03:23.810Z,59.80
2023-03-07T09:05:25.764Z,59.70
2023-03-07T09:07:27.671Z,59.60
2023-03-07T09:09:29.935Z,59.30
2023-03-07T09:11:31.654Z,59.40
2023-03-07T09:13:42.935Z,59.40
2023-03-07T09:15:51.650Z,59.40
2023-03-07T09:17:53.462Z,59.30
2023-03-07T09:19:56.457Z,59.20
2023-03-07T09:21:58.192Z,59.10
2023-03-07T09:23:59.897Z,59.10
2023-03-07T09:26:02.197Z,59.20
2023-03-07T09:28:04.283Z,59.10
2023-03-07T09:30:06.511Z,59.20
2023-03-07T09:32:08.359Z,59.10
2023-03-07T09:34:10.709Z,59.10
2023-03-07T09:36:12.875Z,59.20
2023-03-07T09:38:14.729Z,59.20
2023-03-07T09:40:18.693Z,59.10
2023-03-07T09:42:29.009Z,59.10
2023-03-07T09:44:33.554Z,59.20
2023-03-07T09:47:10.477Z,59.30
2023-03-07T09:49:19.494Z,59.10
2023-03-07T09:51:21.486Z,59.10
2023-03-07T09:53:28.304Z,59.00
2023-03-07T09:55:30.896Z,59.00
2023-03-07T09:57:34.467Z,59.10
2023-03-07T09:59:44.529Z,58.90
2023-03-07T10:01:46.401Z,58.90
2023-03-07T10:04:00.670Z,59.00
2023-03-07T10:06:07.581Z,58.90
2023-03-07T10:08:13.580Z,58.70
2023-03-07T10:10:20.085Z,58.30
2023-03-07T10:12:21.822Z,58.20
2023-03-07T10:14:23.542Z,58.30
2023-03-07T10:16:36.057Z,58.20
2023-03-07T10:18:47.359Z,58.30
2023-03-07T10:20:57.114Z,58.40
2023-03-07T10:23:01.559Z,58.40
2023-03-07T10:25:06.681Z,58.30
2023-03-07T10:27:15.132Z,57.80
2023-03-07T10:29:18.474Z,57.70
2023-03-07T10:31:32.099Z,58.00
2023-03-07T10:33:34.138Z,58.10
2023-03-07T10:35:38.586Z,57.50
2023-03-07T10:37:51.254Z,57.80
2023-03-07T10:39:54.279Z,57.80
2023-03-07T10:41:56.716Z,57.60
2023-03-07T10:43:58.616Z,57.70
2023-03-07T10:46:00.499Z,57.60
2023-03-07T10:48:09.656Z,57.40
2023-03-07T10:50:23.649Z,58.40
2023-03-07T10:52:25.363Z,57.70
2023-03-07T10:54:30.995Z,57.60
2023-03-07T10:56:32.677Z,57.60
2023-03-07T10:58:34.376Z,57.20
2023-03-07T11:00:36.162Z,57.30
2023-03-07T11:02:41.811Z,57.50
2023-03-07T11:04:45.941Z,57.50
2023-03-07T11:06:50.385Z,57.30
2023-03-07T11:08:52.099Z,57.30
2023-03-07T11:10:54.223Z,57.50
2023-03-07T11:12:56.118Z,57.20
2023-03-07T11:15:08.769Z,57.20
2023-03-07T11:17:18.229Z,57.10
2023-03-07T11:19:29.013Z,56.70
2023-03-07T11:21:32.352Z,56.70
2023-03-07T11:23:34.063Z,56.70
2023-03-07T11:25:35.906Z,56.70
2023-03-07T11:27:51.335Z,57.10
2023-03-07T11:30:15.349Z,56.00
2023-03-07T11:32:21.186Z,56.70
2023-03-07T11:34:22.867Z,56.80
2023-03-07T11:36:31.612Z,56.80
2023-03-07T11:38:33.225Z,56.90
2023-03-07T11:40:41.326Z,56.70
2023-03-07T11:43:03.292Z,56.50
2023-03-07T11:45:05.269Z,56.90
2023-03-07T11:47:19.345Z,56.90
2023-03-07T11:49:39.974Z,56.80
2023-03-07T11:52:05.713Z,56.70
2023-03-07T11:54:18.460Z,56.90
2023-03-07T11:56:32.430Z,56.90
2023-03-07T11:58:34.153Z,56.90
2023-03-07T12:00:44.854Z,56.60
2023-03-07T12:03:15.893Z,56.50
2023-03-07T12:05:20.295Z,56.40
2023-03-07T12:07:31.009Z,56.40
2023-03-07T12:09:36.982Z,56.30
2023-03-07T12:11:38.689Z,56.00
2023-03-07T12:14:09.537Z,56.50
2023-03-07T12:16:30.701Z,56.30
2023-03-07T12:18:50.972Z,56.30
2023-03-07T12:21:08.045Z,56.10
2023-03-07T12:23:09.681Z,55.90
2023-03-07T12:25:19.502Z,55.70
2023-03-07T12:27:28.279Z,55.60
2023-03-07T12:29:38.513Z,55.70
2023-03-07T12:31:43.686Z,55.30
2023-03-07T12:33:45.360Z,55.60
2023-03-07T12:35:49.399Z,55.70
2023-03-07T12:38:02.042Z,55.60
2023-03-07T12:40:18.104Z,55.90
2023-03-07T12:42:55.247Z,56.00
2023-03-07T12:44:59.503Z,56.20
2023-03-07T12:47:13.221Z,55.70
2023-03-07T12:49:16.014Z,55.70
2023-03-07T12:51:18.009Z,55.50
2023-03-07T12:53:35.462Z,55.40
2023-03-07T12:55:40.171Z,55.20
2023-03-07T12:57:43.880Z,55.40
2023-03-07T12:59:45.973Z,55.30
2023-03-07T13:01:47.719Z,55.40
2023-03-07T13:03:58.234Z,55.40
2023-03-07T13:06:00.129Z,55.00
2023-03-07T13:08:02.383Z,55.30
2023-03-07T13:10:05.875Z,54.90
2023-03-07T13:12:16.588Z,55.30
2023-03-07T13:14:37.343Z,55.20
2023-03-07T13:16:40.972Z,55.00
2023-03-07T13:18:42.728Z,55.20
2023-03-07T13:20:44.904Z,54.70
2023-03-07T13:22:46.598Z,55.10
2023-03-07T13:24:52.106Z,55.10
2023-03-07T13:26:55.084Z,55.10
2023-03-07T13:28:57.643Z,55.30
2023-03-07T13:31:18.259Z,55.10
2023-03-07T13:33:28.029Z,54.90
2023-03-07T13:35:33.456Z,55.10
2023-03-07T13:37:48.885Z,54.80
2023-03-07T13:39:58.957Z,54.80
2023-03-07T13:42:00.627Z,54.90
2023-03-07T13:44:02.937Z,55.00
2023-03-07T13:46:05.888Z,54.80
2023-03-07T13:48:19.665Z,54.90
2023-03-07T13:50:33.903Z,55.00
2023-03-07T13:52:36.636Z,54.90
2023-03-07T13:54:40.896Z,55.00
2023-03-07T13:56:42.929Z,54.90
2023-03-07T13:59:07.916Z,54.60
2023-03-07T14:01:14.728Z,54.90
2023-03-07T14:03:27.628Z,55.10
2023-03-07T14:05:31.925Z,55.00
2023-03-07T14:07:36.325Z,55.00
2023-03-07T14:09:47.942Z,55.00
2023-03-07T14:12:09.505Z,54.90
2023-03-07T14:14:11.406Z,55.00
2023-03-07T14:16:42.493Z,54.80
2023-03-07T14:18:48.299Z,55.00
2023-03-07T14:20:52.876Z,54.50
2023-03-07T14:23:04.154Z,54.90
2023-03-07T14:25:22.008Z,54.80
2023-03-07T14:27:23.679Z,54.80
2023-03-07T14:29:26.813Z,54.30
2023-03-07T14:31:30.299Z,54.60
2023-03-07T14:33:37.193Z,54.70
2023-03-07T14:35:40.376Z,54.60
2023-03-07T14:37:44.008Z,54.80
2023-03-07T14:40:21.272Z,54.70
2023-03-07T14:42:28.564Z,54.40
2023-03-07T14:44:45.423Z,54.40
2023-03-07T14:47:19.384Z,54.50
2023-03-07T14:49:26.897Z,54.70
2023-03-07T14:51:30.147Z,54.60
2023-03-07T14:53:33.523Z,54.30
2023-03-07T14:55:37.539Z,54.40
2023-03-07T14:57:46.113Z,54.60
2023-03-07T15:00:06.693Z,54.70
2023-03-07T15:02:17.573Z,54.60
2023-03-07T15:04:24.225Z,54.60
2023-03-07T15:06:26.684Z,54.60
2023-03-07T15:08:30.394Z,54.70
2023-03-07T15:10:40.978Z,55.00
2023-03-07T15:12:44.012Z,54.80
2023-03-07T15:14:48.440Z,55.10
2023-03-07T15:16:51.211Z,54.80
2023-03-07T15:18:58.392Z,54.90
2023-03-07T15:21:01.296Z,54.70
2023-03-07T15:23:04.876Z,54.60
2023-03-07T15:25:16.508Z,54.90
2023-03-07T15:27:28.955Z,55.00
2023-03-07T15:29:31.427Z,54.80
2023-03-07T15:31:48.180Z,55.10
2023-03-07T15:33:49.850Z,54.90
2023-03-07T15:36:10.680Z,54.90
2023-03-07T15:38:23.450Z,55.00
2023-03-07T15:40:26.840Z,55.10
2023-03-07T15:42:29.445Z,55.10
2023-03-07T15:44:31.630Z,55.20
2023-03-07T15:46:34.628Z,54.90
2023-03-07T15:48:50.606Z,55.00
2023-03-07T15:50:53.338Z,54.90
2023-03-07T15:52:58.976Z,54.90
2023-03-07T15:55:01.968Z,55.00
2023-03-07T15:57:06.147Z,55.30
2023-03-07T15:59:17.178Z,55.30
2023-03-07T16:01:21.732Z,55.30
2023-03-07T16:03:27.845Z,55.30
2023-03-07T16:05:31.356Z,55.30
2023-03-07T16:07:33.168Z,55.40
2023-03-07T16:09:35.030Z,55.60
2023-03-07T16:11:38.174Z,55.60
2023-03-07T16:13:42.198Z,55.50
2023-03-07T16:15:44.493Z,55.60
2023-03-07T16:17:48.611Z,55.60
2023-03-07T16:19:50.355Z,55.60
2023-03-07T16:21:52.326Z,55.60
2023-03-07T16:23:54.156Z,55.60
2023-03-07T16:25:55.946Z,55.70
2023-03-07T16:27:58.705Z,55.80
2023-03-07T16:30:00.505Z,55.80
2023-03-07T16:32:04.087Z,55.80
2023-03-07T16:34:06.474Z,55.80
2023-03-07T16:36:09.120Z,55.90
2023-03-07T16:38:10.979Z,55.90
2023-03-07T16:40:13.508Z,55.80
2023-03-07T16:42:18.689Z,55.80
2023-03-07T16:44:21.403Z,55.90
2023-03-07T16:46:23.800Z,55.80
2023-03-07T16:48:25.937Z,55.90
2023-03-07T16:50:29.016Z,55.90
2023-03-07T16:52:30.772Z,56.00
2023-03-07T16:54:32.667Z,56.10
2023-03-07T16:56:40.588Z,56.10
2023-03-07T16:58:44.301Z,56.20
2023-03-07T17:00:46.205Z,56.20
2023-03-07T17:02:48.904Z,56.10
2023-03-07T17:04:50.744Z,56.10
2023-03-07T17:07:03.846Z,56.70
2023-03-07T17:09:07.006Z,56.00
2023-03-07T17:11:19.546Z,56.00
2023-03-07T17:13:21.459Z,55.80
2023-03-07T17:15:26.397Z,55.80
2023-03-07T17:17:30.291Z,55.80
2023-03-07T17:19:32.374Z,55.80
2023-03-07T17:21:34.075Z,55.90
2023-03-07T17:23:36.208Z,55.90
2023-03-07T17:25:39.170Z,55.90
2023-03-07T17:27:43.286Z,55.70
2023-03-07T17:29:46.587Z,55.70
2023-03-07T17:31:48.311Z,55.70
2023-03-07T17:33:50.148Z,55.80
2023-03-07T17:35:51.919Z,55.70
2023-03-07T17:37:54.243Z,55.80
2023-03-07T17:39:56.018Z,55.80
2023-03-07T17:41:58.894Z,55.80
2023-03-07T17:44:00.635Z,55.70
2023-03-07T17:46:07.332Z,55.70
2023-03-07T17:48:09.029Z,55.80
2023-03-07T17:50:11.201Z,55.80
2023-03-07T17:52:14.815Z,55.90
2023-03-07T17:54:16.792Z,55.80
2023-03-07T17:56:18.863Z,55.60
2023-03-07T17:58:20.712Z,55.50
2023-03-07T18:00:22.755Z,55.60
2023-03-07T18:02:24.673Z,55.70
2023-03-07T18:04:28.552Z,55.70
2023-03-07T18:06:33.900Z,55.70
2023-03-07T18:08:36.291Z,55.50
2023-03-07T18:10:38.005Z,55.60
2023-03-07T18:12:40.181Z,55.60
2023-03-07T18:14:41.980Z,55.80
2023-03-07T18:16:44.002Z,55.60
2023-03-07T18:18:58.281Z,55.50
2023-03-07T18:21:05.826Z,56.10
2023-03-07T18:23:07.729Z,55.30
2023-03-07T18:25:11.174Z,55.60
2023-03-07T18:27:12.917Z,55.50
2023-03-07T18:29:14.703Z,55.50
2023-03-07T18:31:18.157Z,55.40
2023-03-07T18:33:19.949Z,55.30
2023-03-07T18:35:23.450Z,55.40
2023-03-07T18:37:25.292Z,55.30
2023-03-07T18:39:27.336Z,55.40
2023-03-07T18:41:30.166Z,55.30
2023-03-07T18:43:32.268Z,55.30
2023-03-07T18:45:33.982Z,55.30
2023-03-07T18:47:35.758Z,55.40
2023-03-07T18:49:38.593Z,55.40
2023-03-07T18:51:42.723Z,55.30
2023-03-07T18:53:44.600Z,55.30
2023-03-07T18:55:46.377Z,55.30
2023-03-07T18:57:48.135Z,55.30
2023-03-07T18:59:51.060Z,54.80
2023-03-07T19:01:52.831Z,55.20
2023-03-07T19:03:55.516Z,55.30
2023-03-07T19:05:57.805Z,55.30
2023-03-07T19:07:59.529Z,55.10
2023-03-07T19:10:01.275Z,55.20
2023-03-07T19:12:03.206Z,55.30
2023-03-07T19:14:04.955Z,55.20
2023-03-07T19:16:08.616Z,55.30
2023-03-07T19:18:10.740Z,55.20
2023-03-07T19:20:12.577Z,55.00
2023-03-07T19:22:14.744Z,54.90
2023-03-07T19:24:16.566Z,55.00
2023-03-07T19:26:19.482Z,55.20
2023-03-07T19:28:21.310Z,55.30
2023-03-07T19:30:23.168Z,55.30
2023-03-07T19:32:25.088Z,55.10
2023-03-07T19:34:26.950Z,55.00
2023-03-07T19:36:39.117Z,55.00
2023-03-07T19:38:48.133Z,55.00
2023-03-07T19:40:50.536Z,55.10
2023-03-07T19:42:53.477Z,55.10
2023-03-07T19:45:00.876Z,55.10
2023-03-07T19:47:05.887Z,55.30
2023-03-07T19:49:08.088Z,55.30
2023-03-07T19:51:17.131Z,55.00
2023-03-07T19:53:19.549Z,54.90
2023-03-07T19:55:21.395Z,55.00
2023-03-07T19:57:23.202Z,55.00
2023-03-07T19:59:31.475Z,55.00
2023-03-07T20:01:55.814Z,55.20
2023-03-07T20:04:03.635Z,55.00
2023-03-07T20:06:06.579Z,55.00
2023-03-07T20:08:08.610Z,55.30
2023-03-07T20:10:10.912Z,55.10
2023-03-07T20:12:12.863Z,55.10
2023-03-07T20:14:54.119Z,55.00
2023-03-07T20:17:05.539Z,55.00
2023-03-07T20:19:08.766Z,55.10
2023-03-07T20:21:17.289Z,55.60
2023-03-07T20:23:26.953Z,55.00
2023-03-07T20:25:30.007Z,55.00
2023-03-07T20:27:46.667Z,55.20
2023-03-07T20:29:49.877Z,55.20
2023-03-07T20:32:14.421Z,55.10
2023-03-07T20:35:03.249Z,55.10
2023-03-07T20:37:20.789Z,55.00
2023-03-07T20:39:35.853Z,55.00
2023-03-07T20:41:45.102Z,55.00
2023-03-07T20:43:47.819Z,55.00
2023-03-07T20:45:52.257Z,55.00
2023-03-07T20:47:54.221Z,55.00
2023-03-07T20:49:59.830Z,54.70
2023-03-07T20:52:01.828Z,55.00
2023-03-07T20:54:15.483Z,55.10
2023-03-07T20:56:20.959Z,55.20
2023-03-07T20:58:34.941Z,55.00
2023-03-07T21:00:36.853Z,55.00
2023-03-07T21:02:42.829Z,55.10
2023-03-07T21:04:44.713Z,55.00
2023-03-07T21:06:46.916Z,54.90
2023-03-07T21:08:48.908Z,55.00
2023-03-07T21:11:09.469Z,55.00
2023-03-07T21:13:13.146Z,54.50
2023-03-07T21:15:15.189Z,54.60
2023-03-07T21:17:17.175Z,54.70
2023-03-07T21:19:18.995Z,54.60
2023-03-07T21:21:21.619Z,54.70
2023-03-07T21:23:23.386Z,54.70
2023-03-07T21:25:25.284Z,54.70
2023-03-07T21:27:27.797Z,54.80
2023-03-07T21:29:29.657Z,54.70
2023-03-07T21:31:32.356Z,54.80
2023-03-07T21:33:34.640Z,54.70
2023-03-07T21:35:39.550Z,54.70
2023-03-07T21:37:41.679Z,54.80
2023-03-07T21:39:43.365Z,54.70
2023-03-07T21:41:45.117Z,54.70
2023-03-07T21:43:46.868Z,54.80
2023-03-07T21:45:48.707Z,54.80
2023-03-07T21:47:53.330Z,55.00
2023-03-07T21:49:54.989Z,55.00
2023-03-07T21:51:56.714Z,54.80
2023-03-07T21:53:58.511Z,54.80
2023-03-07T21:56:01.449Z,54.90
2023-03-07T21:58:03.753Z,54.70
2023-03-07T22:00:09.733Z,54.60
2023-03-07T22:02:12.007Z,54.50
2023-03-07T22:04:13.960Z,54.60
2023-03-07T22:06:16.765Z,54.60
2023-03-07T22:08:20.322Z,54.50
2023-03-07T22:10:22.072Z,54.50
2023-03-07T22:12:23.768Z,54.50
2023-03-07T22:14:25.486Z,54.20
2023-03-07T22:16:27.228Z,54.40
2023-03-07T22:18:29.445Z,54.20
2023-03-07T22:20:31.127Z,54.50
2023-03-07T22:22:34.797Z,54.40
2023-03-07T22:24:36.466Z,54.50
2023-03-07T22:26:38.635Z,54.30
2023-03-07T22:28:43.249Z,54.50
2023-03-07T22:30:46.300Z,54.50
2023-03-07T22:32:48.058Z,54.60
2023-03-07T22:34:53.224Z,54.60
2023-03-07T22:36:56.289Z,54.50
2023-03-07T22:38:58.070Z,54.60
2023-03-07T22:41:00.775Z,54.50
2023-03-07T22:43:02.404Z,53.90
2023-03-07T22:45:04.242Z,54.20
2023-03-07T22:47:05.989Z,54.20
2023-03-07T22:49:09.658Z,54.20
2023-03-07T22:51:12.277Z,54.10
2023-03-07T22:53:13.996Z,54.30
2023-03-07T22:55:15.758Z,54.60
2023-03-07T22:57:17.412Z,54.20
2023-03-07T22:59:19.037Z,54.10
2023-03-07T23:01:24.992Z,54.40
2023-03-07T23:03:26.757Z,54.20
2023-03-07T23:05:29.698Z,54.30
2023-03-07T23:07:31.481Z,54.40
2023-03-07T23:09:33.150Z,54.20
2023-03-07T23:11:35.915Z,54.30
2023-03-07T23:13:37.681Z,54.40
2023-03-07T23:15:40.698Z,54.30
2023-03-07T23:17:42.410Z,54.20
2023-03-07T23:19:44.089Z,54.30
2023-03-07T23:21:45.771Z,54.70
2023-03-07T23:23:47.472Z,54.30
2023-03-07T23:25:49.179Z,54.10
2023-03-07T23:27:50.834Z,54.20
2023-03-07T23:29:52.491Z,54.00
2023-03-07T23:31:54.155Z,53.90
2023-03-07T23:33:56.938Z,53.90
2023-03-07T23:35:59.316Z,53.80
2023-03-07T23:38:01.384Z,54.00
2023-03-07T23:40:03.558Z,54.00
2023-03-07T23:42:05.217Z,54.10
2023-03-07T23:44:06.951Z,54.40
2023-03-07T23:46:08.651Z,54.20
2023-03-07T23:48:10.589Z,54.30
2023-03-07T23:50:12.312Z,53.90
2023-03-07T23:52:14.017Z,54.10
2023-03-07T23:54:15.630Z,54.10
2023-03-07T23:56:17.482Z,54.10
2023-03-07T23:58:19.173Z,53.60
